Time;durP1;ratioP1;P1;durP2;ratioP2;P2;SDS_P1;SDS_P2;PMS_P1;PMS_P2;Temp;Humidity;BMP_temperature;BMP_pressure;BME280_temperature;BME280_humidity;BME280_pressure;Samples;Min_cycle;Max_cycle;Signal;HPM_P1;HPM_P2
2022/03/21 00:01:18;;;;;;;10.93;7.43;;;3.20;99.90;;;;;;6240253;28;20308;-76
2022/03/21 00:04:24;;;;;;;12.30;7.30;;;3.20;99.90;;;;;;6240881;28;20293;-76
2022/03/21 00:07:31;;;;;;;11.50;7.70;;;3.10;99.90;;;;;;6240932;28;20298;-76
2022/03/21 00:10:36;;;;;;;9.33;7.63;;;3.10;99.90;;;;;;6240763;28;20303;-76
2022/03/21 00:13:41;;;;;;;11.10;7.73;;;3.00;99.90;;;;;;6240733;28;20303;-76
2022/03/21 00:16:48;;;;;;;10.07;7.97;;;3.00;99.90;;;;;;6240889;28;20473;-75
2022/03/21 00:19:54;;;;;;;14.70;7.90;;;2.90;99.90;;;;;;6240241;28;20302;-76
2022/03/21 00:23:01;;;;;;;11.77;7.63;;;2.90;99.90;;;;;;6240681;28;20296;-76
2022/03/21 00:26:07;;;;;;;15.47;8.67;;;2.80;99.90;;;;;;6241169;28;20275;-76
2022/03/21 00:29:14;;;;;;;16.37;8.70;;;2.90;99.90;;;;;;6240601;28;20303;-76
2022/03/21 00:32:19;;;;;;;12.67;8.10;;;2.80;99.90;;;;;;6238675;28;20390;-76
2022/03/21 00:35:25;;;;;;;13.47;8.87;;;2.90;99.90;;;;;;6239386;28;20273;-75
2022/03/21 00:38:34;;;;;;;11.30;8.83;;;2.80;99.90;;;;;;6239914;28;20296;-75
2022/03/21 00:41:41;;;;;;;15.63;9.80;;;2.80;99.90;;;;;;6240585;28;20477;-75
2022/03/21 00:44:47;;;;;;;16.27;9.60;;;2.80;99.90;;;;;;6239821;28;20605;-75
2022/03/21 00:47:54;;;;;;;13.97;9.03;;;2.80;99.90;;;;;;6239829;28;20480;-76
2022/03/21 00:51:00;;;;;;;18.27;10.27;;;2.90;99.90;;;;;;6239942;28;20279;-76
2022/03/21 00:54:07;;;;;;;15.93;9.80;;;2.80;99.90;;;;;;6239489;28;20304;-75
2022/03/21 00:57:13;;;;;;;16.57;9.80;;;2.80;99.90;;;;;;6239742;28;20275;-75
2022/03/21 01:00:22;;;;;;;17.93;10.20;;;2.70;99.90;;;;;;6239356;28;20286;-75
2022/03/21 01:03:27;;;;;;;18.83;9.90;;;2.70;99.90;;;;;;6239668;28;20301;-75
2022/03/21 01:06:33;;;;;;;16.43;10.20;;;2.60;99.90;;;;;;6239349;28;20557;-76
2022/03/21 01:09:39;;;;;;;17.23;10.23;;;2.60;99.90;;;;;;6239033;28;20305;-76
2022/03/21 01:12:45;;;;;;;17.57;10.77;;;2.60;99.90;;;;;;6238001;28;20457;-76
2022/03/21 01:15:50;;;;;;;20.00;10.43;;;2.60;99.90;;;;;;6239433;28;20290;-75
2022/03/21 01:18:56;;;;;;;17.87;10.13;;;2.50;99.90;;;;;;6239153;28;20453;-75
2022/03/21 01:22:01;;;;;;;20.77;10.97;;;2.50;99.90;;;;;;6238773;28;20288;-76
2022/03/21 01:25:10;;;;;;;17.67;10.63;;;2.50;99.90;;;;;;6239032;28;20271;-75
2022/03/21 01:28:15;;;;;;;18.67;10.60;;;2.50;99.90;;;;;;6238523;28;20299;-76
2022/03/21 01:31:20;;;;;;;20.13;10.83;;;2.50;99.90;;;;;;6239693;28;20276;-75
2022/03/21 01:34:26;;;;;;;16.73;10.97;;;2.60;99.90;;;;;;6238623;28;20299;-76
2022/03/21 01:37:31;;;;;;;15.50;10.73;;;2.60;99.90;;;;;;6238808;28;20306;-75
2022/03/21 01:40:38;;;;;;;21.00;11.17;;;2.80;99.90;;;;;;6238753;28;20274;-75
2022/03/21 01:44:01;;;;;;;17.23;11.07;;;2.80;99.90;;;;;;6238514;28;20299;-75
2022/03/21 01:47:07;;;;;;;19.47;10.80;;;2.70;99.90;;;;;;6238323;28;20279;-76
2022/03/21 01:50:15;;;;;;;21.37;11.67;;;2.70;99.90;;;;;;6238667;28;20275;-76
2022/03/21 01:56:47;;;;;;;22.93;12.17;;;2.70;99.90;;;;;;6238505;28;20272;-76
2022/03/21 01:59:53;;;;;;;22.53;12.47;;;2.70;99.90;;;;;;6238103;28;20304;-76
2022/03/21 02:02:59;;;;;;;20.07;12.53;;;2.80;99.90;;;;;;6238032;28;20292;-76
2022/03/21 02:06:09;;;;;;;21.80;13.03;;;2.70;99.90;;;;;;6237902;28;20457;-76
2022/03/21 02:09:14;;;;;;;22.23;12.73;;;2.70;99.90;;;;;;6238027;28;20312;-76
2022/03/21 02:12:22;;;;;;;23.43;12.67;;;2.70;99.90;;;;;;6237766;28;20576;-76
2022/03/21 02:15:27;;;;;;;21.50;12.30;;;2.70;99.90;;;;;;6237930;28;20432;-76
2022/03/21 02:18:33;;;;;;;20.13;12.37;;;2.60;99.90;;;;;;6236573;28;20297;-76
2022/03/21 02:21:53;;;;;;;21.83;12.40;;;2.60;99.90;;;;;;6236380;28;20590;-75
2022/03/21 02:25:14;;;;;;;19.63;11.73;;;2.60;99.90;;;;;;6237113;28;20351;-75
2022/03/21 02:28:19;;;;;;;20.63;11.83;;;2.50;99.90;;;;;;6237510;28;20301;-75
2022/03/21 02:31:25;;;;;;;23.07;12.93;;;2.50;99.90;;;;;;6238011;28;20274;-75
2022/03/21 02:34:31;;;;;;;22.80;12.90;;;2.50;99.90;;;;;;6235808;28;20299;-75
2022/03/21 02:37:37;;;;;;;18.50;12.17;;;2.50;99.90;;;;;;6237118;28;20476;-75
2022/03/21 02:40:44;;;;;;;21.33;12.57;;;2.40;99.90;;;;;;6237721;28;20452;-75
2022/03/21 02:43:52;;;;;;;17.97;12.60;;;2.40;99.90;;;;;;6237332;28;20297;-75
2022/03/21 02:46:57;;;;;;;20.17;12.87;;;2.40;99.90;;;;;;6237124;28;20295;-75
2022/03/21 02:50:04;;;;;;;22.57;13.23;;;2.40;99.90;;;;;;6236794;28;20281;-75
2022/03/21 02:53:12;;;;;;;26.47;13.27;;;2.40;99.90;;;;;;6236952;28;20301;-75
2022/03/21 02:56:20;;;;;;;22.13;13.17;;;2.40;99.90;;;;;;6237031;28;20460;-75
2022/03/21 02:59:26;;;;;;;21.23;13.40;;;2.30;99.90;;;;;;6236780;28;20298;-75
2022/03/21 03:02:31;;;;;;;21.90;13.30;;;2.30;99.90;;;;;;6236655;28;20370;-74
2022/03/21 03:05:37;;;;;;;22.20;13.30;;;2.30;99.90;;;;;;6237519;28;20373;-75
2022/03/21 03:08:44;;;;;;;22.57;13.30;;;2.30;99.90;;;;;;6236030;28;20308;-75
2022/03/21 03:11:50;;;;;;;22.67;13.67;;;2.20;99.90;;;;;;6237119;28;20271;-75
2022/03/21 03:14:56;;;;;;;24.83;14.17;;;2.20;99.90;;;;;;6236457;28;20297;-75
2022/03/21 03:18:01;;;;;;;20.90;13.23;;;2.20;99.90;;;;;;6236808;28;20296;-75
2022/03/21 03:21:08;;;;;;;26.20;14.27;;;2.20;99.90;;;;;;6236842;28;20278;-75
2022/03/21 03:24:14;;;;;;;21.37;13.80;;;2.20;99.90;;;;;;6236249;28;20303;-75
2022/03/21 03:27:21;;;;;;;24.60;14.53;;;2.10;99.90;;;;;;6236238;28;20316;-75
2022/03/21 03:30:26;;;;;;;27.00;14.73;;;2.10;99.90;;;;;;6236953;28;20272;-75
2022/03/21 03:33:31;;;;;;;27.73;14.50;;;2.00;99.90;;;;;;6235884;28;20306;-75
2022/03/21 03:36:38;;;;;;;27.20;14.70;;;2.10;99.90;;;;;;6241105;28;20272;-75
2022/03/21 03:39:43;;;;;;;23.57;14.10;;;2.10;99.90;;;;;;6241391;28;20288;-75
2022/03/21 03:42:50;;;;;;;28.43;14.40;;;2.10;99.90;;;;;;6241073;28;20477;-75
2022/03/21 03:45:57;;;;;;;26.47;14.77;;;2.10;99.90;;;;;;6241191;28;20272;-75
2022/03/21 03:49:02;;;;;;;27.60;15.47;;;2.00;99.90;;;;;;6241008;28;20307;-75
2022/03/21 03:52:08;;;;;;;30.80;16.07;;;2.00;99.90;;;;;;6240969;28;20276;-75
2022/03/21 03:55:13;;;;;;;30.73;16.07;;;2.10;99.90;;;;;;6241508;28;20280;-75
2022/03/21 03:58:20;;;;;;;28.23;15.50;;;2.00;99.90;;;;;;6241293;28;20296;-74
2022/03/21 04:01:25;;;;;;;26.47;15.60;;;2.00;99.90;;;;;;6240515;28;20272;-75
2022/03/21 04:04:31;;;;;;;28.83;15.43;;;2.00;99.90;;;;;;6239863;28;20302;-75
2022/03/21 04:07:36;;;;;;;26.30;16.30;;;2.00;99.90;;;;;;6240175;28;20481;-75
2022/03/21 04:10:41;;;;;;;28.53;16.70;;;1.90;99.90;;;;;;6231463;28;20297;-75
2022/03/21 04:13:48;;;;;;;29.03;15.53;;;2.00;99.90;;;;;;6216061;28;20613;-75
2022/03/21 04:16:53;;;;;;;30.90;17.00;;;1.90;99.90;;;;;;6216425;28;20272;-75
2022/03/21 04:19:58;;;;;;;30.87;16.80;;;1.90;99.90;;;;;;6215823;28;20306;-75
2022/03/21 04:23:04;;;;;;;30.50;17.17;;;1.90;99.90;;;;;;6215794;28;20305;-75
2022/03/21 04:26:12;;;;;;;30.07;16.97;;;1.90;99.90;;;;;;6216375;28;20274;-75
2022/03/21 04:29:19;;;;;;;30.27;16.13;;;1.90;99.90;;;;;;6215611;28;20298;-75
2022/03/21 04:32:24;;;;;;;30.50;16.43;;;1.90;99.90;;;;;;6215614;28;20296;-75
2022/03/21 04:35:29;;;;;;;33.43;17.30;;;1.90;99.90;;;;;;6216216;28;20294;-75
2022/03/21 04:38:34;;;;;;;32.37;16.23;;;1.90;99.90;;;;;;6215257;28;20581;-75
2022/03/21 04:41:40;;;;;;;27.37;16.90;;;1.90;99.90;;;;;;6215818;28;20461;-75
2022/03/21 04:44:48;;;;;;;38.27;17.83;;;1.90;99.90;;;;;;6214988;28;20312;-75
2022/03/21 04:47:53;;;;;;;29.40;16.37;;;1.90;99.90;;;;;;6215316;28;20295;-75
2022/03/21 04:50:59;;;;;;;28.70;17.20;;;1.90;99.90;;;;;;6214989;28;20273;-75
2022/03/21 04:54:04;;;;;;;30.27;16.70;;;1.80;99.90;;;;;;6215135;28;20308;-75
2022/03/21 04:57:12;;;;;;;30.87;17.77;;;1.90;99.90;;;;;;6214455;28;20281;-75
2022/03/21 05:00:19;;;;;;;33.23;17.00;;;1.90;99.90;;;;;;6214777;28;20274;-75
2022/03/21 05:03:25;;;;;;;33.63;17.33;;;1.90;99.90;;;;;;6215072;28;20304;-75
2022/03/21 05:06:30;;;;;;;30.17;16.57;;;1.90;99.90;;;;;;6214653;28;20273;-75
2022/03/21 05:09:36;;;;;;;31.17;16.57;;;1.90;99.90;;;;;;6214125;28;20310;-75
2022/03/21 05:12:41;;;;;;;32.97;17.23;;;1.90;99.90;;;;;;6214536;28;20592;-75
2022/03/21 05:15:49;;;;;;;34.87;18.27;;;1.80;99.90;;;;;;6215197;28;20564;-75
2022/03/21 05:18:55;;;;;;;32.53;18.33;;;1.80;99.90;;;;;;6214765;28;20474;-75
2022/03/21 05:22:00;;;;;;;32.57;17.57;;;1.80;99.90;;;;;;6214483;28;20271;-76
2022/03/21 05:32:03;;;;;;;31.83;17.00;;;1.80;99.90;;;;;;6214057;28;20273;-76
2022/03/21 05:38:33;;;;;;;34.87;18.17;;;1.80;99.90;;;;;;6214032;28;20300;-75
2022/03/21 05:41:38;;;;;;;30.97;18.20;;;1.80;99.90;;;;;;6214264;28;20273;-75
2022/03/21 05:44:43;;;;;;;31.73;17.93;;;1.80;99.90;;;;;;6213931;28;20305;-75
2022/03/21 05:51:15;;;;;;;35.47;17.63;;;1.90;99.90;;;;;;6214195;28;20286;-74
2022/03/21 05:54:22;;;;;;;34.67;17.90;;;1.90;99.90;;;;;;6213833;28;20309;-74
2022/03/21 05:57:27;;;;;;;38.30;18.07;;;1.90;99.90;;;;;;6212577;28;20301;-74
2022/03/21 06:00:35;;;;;;;31.27;18.07;;;2.00;99.90;;;;;;6213937;28;20278;-75
2022/03/21 06:03:41;;;;;;;38.07;17.27;;;2.10;99.90;;;;;;6213688;28;20295;-74
2022/03/21 06:06:47;;;;;;;36.07;17.47;;;2.10;99.90;;;;;;6213647;28;20295;-74
2022/03/21 06:09:52;;;;;;;37.90;16.70;;;2.20;99.90;;;;;;6208689;28;20306;-75
2022/03/21 06:12:58;;;;;;;34.93;17.33;;;2.20;99.90;;;;;;6189335;28;20318;-75
2022/03/21 06:16:20;;;;;;;32.03;16.53;;;2.20;99.90;;;;;;6189084;28;20573;-74
2022/03/21 06:19:27;;;;;;;29.93;17.17;;;2.30;99.90;;;;;;6188430;28;20293;-74
2022/03/21 06:22:32;;;;;;;29.47;16.03;;;2.30;99.90;;;;;;6189031;28;20305;-74
2022/03/21 06:25:38;;;;;;;33.20;16.97;;;2.30;99.90;;;;;;6188768;28;20292;-74
2022/03/21 06:28:43;;;;;;;32.70;16.27;;;2.30;99.90;;;;;;6188823;28;20313;-74
2022/03/21 06:31:48;;;;;;;33.93;15.77;;;2.40;99.90;;;;;;6188591;28;20272;-74
2022/03/21 06:34:56;;;;;;;30.07;15.97;;;2.40;99.90;;;;;;6188669;28;20301;-74
2022/03/21 06:38:01;;;;;;;33.60;16.47;;;2.50;99.90;;;;;;6188428;28;20295;-73
2022/03/21 06:41:07;;;;;;;36.53;17.23;;;2.50;99.90;;;;;;6189130;28;20280;-72
2022/03/21 06:44:14;;;;;;;37.10;17.13;;;2.50;99.90;;;;;;6188635;28;20597;-74
2022/03/21 06:47:20;;;;;;;30.57;15.97;;;2.70;99.90;;;;;;6188041;28;20283;-74
2022/03/21 06:50:27;;;;;;;30.33;17.00;;;2.70;99.90;;;;;;6188514;28;20275;-74
2022/03/21 06:53:32;;;;;;;32.53;16.97;;;2.80;99.90;;;;;;6188240;28;20633;-74
2022/03/21 06:56:37;;;;;;;31.67;17.13;;;2.90;99.90;;;;;;6188035;28;20278;-74
2022/03/21 06:59:42;;;;;;;34.07;16.17;;;3.10;99.90;;;;;;6187913;28;20483;-74
2022/03/21 07:02:48;;;;;;;40.93;16.43;;;3.20;99.90;;;;;;6187527;28;20299;-76
2022/03/21 07:05:55;;;;;;;33.87;17.23;;;3.20;99.90;;;;;;6189089;28;20294;-76
2022/03/21 07:09:07;;;;;;;40.60;17.23;;;3.30;99.90;;;;;;6208867;28;20308;-75
2022/03/21 07:12:12;;;;;;;32.97;16.43;;;3.40;99.90;;;;;;6236113;28;20271;-74
2022/03/21 07:15:18;;;;;;;40.37;16.60;;;3.50;99.90;;;;;;6236269;28;20507;-73
2022/03/21 07:18:25;;;;;;;37.30;17.33;;;3.60;99.90;;;;;;6235922;28;20304;-74
2022/03/21 07:21:31;;;;;;;37.03;16.87;;;3.70;99.90;;;;;;6236659;28;20275;-74
2022/03/21 07:24:37;;;;;;;36.63;17.10;;;3.80;99.90;;;;;;6236224;28;20299;-76
2022/03/21 07:27:45;;;;;;;34.57;17.00;;;3.90;99.90;;;;;;6218432;28;20296;-75
2022/03/21 07:30:50;;;;;;;36.37;15.77;;;4.00;99.90;;;;;;6235822;28;20291;-75
2022/03/21 07:33:56;;;;;;;33.80;15.97;;;3.90;99.90;;;;;;6235988;28;20301;-76
2022/03/21 07:37:03;;;;;;;31.07;15.70;;;3.90;99.90;;;;;;6235758;28;20470;-77
2022/03/21 07:40:11;;;;;;;30.80;15.93;;;4.30;99.90;;;;;;6235724;28;20291;-76
2022/03/21 07:43:18;;;;;;;30.30;14.17;;;4.20;99.90;;;;;;6235977;28;20377;-75
2022/03/21 07:49:46;;;;;;;32.23;14.63;;;4.20;99.90;;;;;;6235604;28;20303;-75
2022/03/21 07:52:54;;;;;;;30.57;14.60;;;4.20;99.90;;;;;;6235618;28;20294;-75
2022/03/21 07:56:00;;;;;;;35.93;13.77;;;4.40;99.90;;;;;;6236407;28;20280;-75
2022/03/21 07:59:05;;;;;;;24.27;12.40;;;4.50;99.90;;;;;;6235940;28;20311;-76
2022/03/21 08:02:12;;;;;;;31.17;13.57;;;4.50;99.90;;;;;;6235781;28;20281;-76
2022/03/21 08:05:18;;;;;;;32.97;13.10;;;4.80;99.90;;;;;;6236581;28;20278;-75
2022/03/21 08:08:25;;;;;;;33.43;12.20;;;4.70;99.90;;;;;;6235301;28;20308;-76
2022/03/21 08:11:30;;;;;;;33.57;11.67;;;4.70;99.20;;;;;;6235545;28;20407;-75
2022/03/21 08:14:35;;;;;;;31.43;11.87;;;4.90;97.50;;;;;;6235588;28;20297;-75
2022/03/21 08:17:52;;;;;;;33.80;11.83;;;4.90;97.50;;;;;;6235040;28;20311;-75
2022/03/21 08:20:57;;;;;;;25.30;11.77;;;5.00;97.80;;;;;;6237768;28;20272;-75
2022/03/21 08:24:06;;;;;;;33.17;11.47;;;5.10;96.90;;;;;;6239495;28;20309;-76
2022/03/21 08:27:11;;;;;;;31.63;11.77;;;5.10;95.70;;;;;;6239510;28;20586;-75
2022/03/21 08:30:18;;;;;;;26.37;10.73;;;5.20;95.50;;;;;;6239976;28;20275;-75
2022/03/21 08:33:23;;;;;;;23.27;10.17;;;5.60;91.70;;;;;;6239551;28;20295;-75
2022/03/21 08:36:28;;;;;;;26.93;11.17;;;5.50;91.60;;;;;;6239691;28;20284;-75
2022/03/21 08:39:35;;;;;;;23.07;9.73;;;5.50;91.80;;;;;;6239659;28;20297;-75
2022/03/21 08:42:41;;;;;;;28.17;10.73;;;5.50;92.00;;;;;;6239323;28;20294;-76
2022/03/21 08:45:48;;;;;;;24.17;11.90;;;5.50;91.40;;;;;;6240017;28;20278;-76
2022/03/21 08:52:36;;;;;;;19.30;10.57;;;5.80;87.80;;;;;;6238945;28;20298;-76
2022/03/21 08:55:43;;;;;;;25.57;10.23;;;5.90;88.20;;;;;;6239336;28;20456;-74
2022/03/21 08:58:48;;;;;;;19.43;11.47;;;5.90;89.50;;;;;;6238719;28;20505;-74
2022/03/21 09:01:54;;;;;;;29.43;10.97;;;5.80;88.70;;;;;;6239551;28;20562;-76
2022/03/21 09:04:59;;;;;;;24.00;11.30;;;5.80;89.70;;;;;;6238535;28;20349;-76
2022/03/21 09:08:05;;;;;;;33.30;11.93;;;5.80;90.20;;;;;;6238645;28;20297;-74
2022/03/21 09:11:13;;;;;;;29.93;11.80;;;5.90;86.80;;;;;;6239354;28;20287;-75
2022/03/21 09:14:19;;;;;;;42.17;12.57;;;5.80;87.70;;;;;;6239678;28;20286;-75
2022/03/21 09:17:24;;;;;;;25.83;11.10;;;5.90;85.70;;;;;;6239050;28;20589;-75
2022/03/21 09:20:30;;;;;;;24.40;10.80;;;6.10;81.50;;;;;;6239311;28;20264;-75
2022/03/21 09:23:35;;;;;;;21.17;10.53;;;6.30;78.90;;;;;;6238561;28;20325;-75
2022/03/21 09:26:42;;;;;;;23.87;10.63;;;6.70;71.50;;;;;;6239106;28;20307;-75
2022/03/21 09:29:47;;;;;;;23.87;11.10;;;6.60;69.10;;;;;;6238545;28;20597;-75
2022/03/21 09:32:53;;;;;;;25.03;9.33;;;6.70;71.20;;;;;;6237792;28;20512;-75
2022/03/21 09:35:58;;;;;;;18.53;9.83;;;6.70;65.10;;;;;;6238687;28;20458;-75
2022/03/21 09:39:04;;;;;;;18.70;10.07;;;6.70;64.10;;;;;;6238346;28;20642;-75
2022/03/21 09:42:14;;;;;;;18.97;9.90;;;6.90;62.90;;;;;;6238284;28;20269;-75
2022/03/21 09:45:19;;;;;;;16.73;8.83;;;6.80;64.50;;;;;;6238441;28;20271;-75
2022/03/21 09:48:24;;;;;;;15.20;9.30;;;6.90;61.20;;;;;;6238191;28;20314;-75
2022/03/21 09:51:31;;;;;;;15.40;8.87;;;6.70;65.70;;;;;;6238291;28;20279;-75
2022/03/21 09:54:36;;;;;;;17.03;8.63;;;6.70;64.90;;;;;;6237996;28;20367;-75
2022/03/21 09:57:43;;;;;;;16.93;7.43;;;6.70;64.60;;;;;;6237833;28;20296;-76
2022/03/21 10:00:49;;;;;;;19.73;8.70;;;6.80;61.80;;;;;;6238478;28;20269;-76
2022/03/21 10:03:55;;;;;;;19.80;8.63;;;7.00;61.60;;;;;;6237485;28;20299;-75
2022/03/21 10:07:01;;;;;;;14.67;9.10;;;7.00;65.10;;;;;;6237976;28;20291;-75
2022/03/21 10:10:09;;;;;;;14.80;8.73;;;7.10;64.00;;;;;;6237439;28;20303;-75
2022/03/21 10:13:18;;;;;;;12.83;8.60;;;7.10;65.50;;;;;;6237438;28;20308;-75
2022/03/21 10:16:23;;;;;;;21.80;9.00;;;7.30;63.30;;;;;;6238068;28;20268;-75
2022/03/21 10:19:45;;;;;;;10.37;8.40;;;7.60;62.30;;;;;;6237456;28;20308;-75
2022/03/21 10:22:51;;;;;;;27.17;9.03;;;7.40;64.70;;;;;;6237019;28;20448;-75
2022/03/21 10:25:56;;;;;;;21.20;8.57;;;7.40;66.00;;;;;;6237968;28;20552;-75
2022/03/21 10:29:08;;;;;;;17.57;8.97;;;7.50;65.50;;;;;;6237427;28;20303;-75
2022/03/21 10:32:13;;;;;;;19.87;9.03;;;7.50;65.60;;;;;;6237202;28;20268;-75
2022/03/21 10:35:22;;;;;;;16.30;9.20;;;7.50;66.20;;;;;;6237411;28;20276;-74
2022/03/21 10:38:32;;;;;;;17.57;8.93;;;7.60;65.50;;;;;;6236876;28;20305;-74
2022/03/21 10:42:00;;;;;;;17.87;8.73;;;7.60;65.40;;;;;;6237048;28;20276;-74
2022/03/21 10:45:08;;;;;;;14.20;8.70;;;8.00;64.10;;;;;;6235983;28;20276;-75
2022/03/21 10:48:18;;;;;;;14.57;8.77;;;7.90;64.50;;;;;;6236307;28;20300;-74
2022/03/21 10:51:23;;;;;;;18.03;8.63;;;7.90;63.40;;;;;;6236571;28;20272;-74
2022/03/21 10:54:43;;;;;;;15.17;8.90;;;8.00;61.60;;;;;;6236690;28;20304;-74
2022/03/21 10:57:49;;;;;;;17.57;8.50;;;8.00;62.30;;;;;;6236672;28;20292;-75
2022/03/21 11:00:55;;;;;;;14.87;8.30;;;8.10;58.70;;;;;;6237138;28;20272;-75
2022/03/21 11:04:02;;;;;;;10.13;7.97;;;8.10;60.20;;;;;;6236330;28;20299;-75
2022/03/21 11:07:11;;;;;;;20.75;9.07;;;8.20;56.80;;;;;;6236114;28;20456;-75
2022/03/21 11:10:18;;;;;;;14.47;8.07;;;8.50;53.50;;;;;;6235872;28;20296;-74
2022/03/21 11:13:25;;;;;;;14.57;8.67;;;8.50;53.10;;;;;;6235882;28;20343;-75
2022/03/21 11:16:31;;;;;;;11.60;8.90;;;8.50;53.40;;;;;;6236264;28;20572;-75
2022/03/21 11:19:37;;;;;;;17.20;8.25;;;8.50;54.90;;;;;;6236248;28;20304;-76
2022/03/21 11:22:44;;;;;;;19.15;9.25;;;8.80;52.80;;;;;;6236062;28;20292;-75
2022/03/21 11:25:54;;;;;;;18.15;8.77;;;8.80;53.40;;;;;;6236284;28;20268;-74
2022/03/21 11:29:21;;;;;;;30.88;9.43;;;8.70;53.70;;;;;;6235671;28;20300;-75
2022/03/21 11:32:40;;;;;;;15.02;8.35;;;8.80;54.80;;;;;;6235723;28;20307;-75
2022/03/21 11:35:52;;;;;;;32.33;8.50;;;8.90;53.40;;;;;;6236587;28;20273;-75
2022/03/21 11:39:00;;;;;;;14.95;7.85;;;9.30;49.10;;;;;;6235414;28;20308;-75
2022/03/21 11:42:08;;;;;;;16.77;7.68;;;9.30;48.70;;;;;;6235295;28;20268;-75
2022/03/21 11:45:25;;;;;;;14.63;7.47;;;9.30;50.00;;;;;;6235420;28;20272;-75
2022/03/21 11:48:36;;;;;;;12.68;7.82;;;9.40;48.20;;;;;;6235706;28;20304;-75
2022/03/21 11:51:43;;;;;;;15.88;7.80;;;9.40;48.00;;;;;;6235989;28;20272;-76
2022/03/21 11:54:48;;;;;;;17.13;8.40;;;9.40;47.60;;;;;;6235668;28;20296;-75
2022/03/21 11:57:53;;;;;;;16.73;8.55;;;9.60;47.50;;;;;;6240115;28;20300;-75
2022/03/21 12:01:10;;;;;;;20.67;9.10;;;9.50;47.90;;;;;;6240557;28;20272;-75
2022/03/21 12:04:30;;;;;;;24.80;9.02;;;9.60;48.10;;;;;;6239072;28;20296;-75
2022/03/21 12:07:37;;;;;;;19.85;8.73;;;9.70;47.60;;;;;;6240182;28;20292;-75
2022/03/21 12:10:45;;;;;;;10.40;7.65;;;9.60;48.30;;;;;;6239884;28;20305;-75
2022/03/21 12:14:41;;;;;;;14.63;8.52;;;9.90;46.70;;;;;;6240140;28;20300;-75
2022/03/21 12:17:49;;;;;;;13.40;8.25;;;9.80;47.20;;;;;;6240377;28;20292;-76
2022/03/21 12:20:56;;;;;;;19.83;8.50;;;9.70;48.10;;;;;;6240223;28;20432;-75
2022/03/21 12:24:16;;;;;;;14.82;7.72;;;9.70;47.60;;;;;;6239731;28;20300;-76
2022/03/21 12:27:31;;;;;;;22.77;8.00;;;10.00;47.10;;;;;;6239937;28;20309;-75
2022/03/21 12:30:39;;;;;;;13.85;7.35;;;9.90;47.10;;;;;;6239803;28;20504;-75
2022/03/21 12:33:44;;;;;;;12.77;6.93;;;10.10;46.90;;;;;;6239500;28;20297;-75
2022/03/21 12:36:51;;;;;;;15.73;7.53;;;10.10;47.20;;;;;;6239747;28;20275;-75
2022/03/21 12:39:57;;;;;;;15.70;7.70;;;10.00;47.20;;;;;;6239653;28;20300;-75
2022/03/21 12:43:05;;;;;;;24.23;8.18;;;10.10;46.70;;;;;;6239653;28;20300;-75
2022/03/21 12:46:14;;;;;;;15.95;7.70;;;10.00;47.50;;;;;;6239355;28;20272;-75
2022/03/21 12:49:19;;;;;;;13.30;7.40;;;10.00;47.90;;;;;;6237941;28;20296;-75
2022/03/21 12:52:32;;;;;;;13.13;7.28;;;10.10;46.90;;;;;;6239172;28;20288;-75
2022/03/21 12:55:38;;;;;;;16.23;7.70;;;10.20;46.80;;;;;;6239077;28;20428;-75
2022/03/21 12:58:46;;;;;;;27.30;7.55;;;10.10;47.80;;;;;;6239206;28;20296;-75
2022/03/21 13:01:55;;;;;;;24.45;8.48;;;10.00;49.00;;;;;;6239863;28;20449;-75
2022/03/21 13:11:59;;;;;;;18.23;7.53;;;10.20;47.80;;;;;;6222140;28;20288;-76
2022/03/21 13:15:08;;;;;;;22.90;8.35;;;10.10;48.80;;;;;;6238304;28;20465;-74
2022/03/21 13:18:16;;;;;;;14.07;8.00;;;10.10;48.10;;;;;;6238124;28;20301;-75
2022/03/21 13:21:22;;;;;;;15.63;8.05;;;10.20;48.40;;;;;;6239099;28;20279;-74
2022/03/21 13:24:40;;;;;;;12.43;7.90;;;10.20;47.40;;;;;;6238471;28;20300;-74
2022/03/21 13:27:45;;;;;;;15.85;8.57;;;10.30;47.40;;;;;;6238349;28;20297;-75
2022/03/21 13:30:58;;;;;;;19.80;8.10;;;10.30;47.90;;;;;;6238872;28;20297;-75
2022/03/21 13:34:08;;;;;;;14.27;8.23;;;10.30;47.90;;;;;;6238438;28;20296;-75
2022/03/21 13:37:19;;;;;;;15.38;7.88;;;10.50;45.70;;;;;;6238322;28;20264;-76
2022/03/21 13:40:27;;;;;;;17.58;8.60;;;10.40;46.50;;;;;;6238597;28;20555;-75
2022/03/21 13:43:33;;;;;;;18.52;8.15;;;10.40;45.30;;;;;;6238038;28;20301;-76
2022/03/21 13:46:38;;;;;;;22.50;9.68;;;10.50;45.70;;;;;;6238392;28;20281;-75
2022/03/21 13:49:48;;;;;;;18.75;7.30;;;10.30;46.20;;;;;;6238099;28;20296;-76
2022/03/21 13:52:56;;;;;;;15.73;8.07;;;10.30;45.30;;;;;;6237971;28;20296;-75
2022/03/21 13:56:03;;;;;;;12.77;7.82;;;10.80;44.80;;;;;;6238079;28;20272;-76
2022/03/21 13:59:10;;;;;;;27.63;8.23;;;11.10;43.30;;;;;;6236358;28;20466;-75
2022/03/21 14:02:19;;;;;;;18.63;7.75;;;11.00;42.30;;;;;;6237377;28;20324;-76
2022/03/21 14:05:29;;;;;;;18.23;8.35;;;11.00;41.80;;;;;;6238375;28;20272;-76
2022/03/21 14:08:39;;;;;;;16.88;8.43;;;11.20;41.30;;;;;;6237077;28;20304;-76
2022/03/21 14:11:46;;;;;;;19.40;8.25;;;11.10;40.30;;;;;;6238008;28;20284;-76
2022/03/21 14:14:53;;;;;;;15.18;8.30;;;10.90;40.70;;;;;;6237490;28;20301;-76
2022/03/21 14:18:01;;;;;;;19.33;7.85;;;10.60;41.50;;;;;;6237045;28;20300;-76
2022/03/21 14:21:09;;;;;;;27.17;8.02;;;10.80;42.70;;;;;;6237725;28;20565;-76
2022/03/21 14:24:19;;;;;;;21.88;7.63;;;10.70;41.40;;;;;;6237641;28;20292;-76
2022/03/21 14:27:26;;;;;;;16.30;7.60;;;10.60;39.60;;;;;;6237493;28;20288;-76
2022/03/21 14:30:31;;;;;;;14.45;8.25;;;10.50;40.10;;;;;;6237390;28;20272;-75
2022/03/21 14:33:37;;;;;;;15.93;7.93;;;10.40;40.60;;;;;;6237013;28;20312;-76
2022/03/21 14:36:43;;;;;;;19.92;7.68;;;10.30;40.70;;;;;;6237155;28;20272;-75
2022/03/21 14:39:50;;;;;;;14.45;7.80;;;10.20;40.50;;;;;;6236938;28;20451;-75
2022/03/21 14:42:56;;;;;;;20.27;8.82;;;10.20;40.30;;;;;;6236955;28;20312;-75
2022/03/21 14:46:02;;;;;;;15.68;8.02;;;10.10;40.80;;;;;;6237090;28;20442;-76
2022/03/21 14:49:08;;;;;;;15.73;8.38;;;10.10;40.60;;;;;;6236770;28;20299;-74
2022/03/21 14:52:13;;;;;;;17.27;7.95;;;10.00;40.50;;;;;;6236328;28;20288;-74
2022/03/21 14:55:18;;;;;;;17.65;8.50;;;9.90;40.80;;;;;;6237171;28;20268;-74
2022/03/21 14:58:25;;;;;;;29.35;8.35;;;9.70;42.60;;;;;;6219096;28;20596;-74
2022/03/21 15:01:30;;;;;;;15.13;8.35;;;9.80;41.20;;;;;;6236461;28;20296;-75
2022/03/21 15:04:38;;;;;;;17.85;8.13;;;9.70;42.00;;;;;;6236214;28;20292;-75
2022/03/21 15:07:43;;;;;;;14.07;8.43;;;9.60;41.20;;;;;;6236345;28;20587;-75
2022/03/21 15:11:07;;;;;;;20.17;8.98;;;9.50;42.30;;;;;;6212241;28;20463;-75
2022/03/21 15:14:13;;;;;;;15.80;8.05;;;9.60;41.10;;;;;;6211754;28;20297;-75
2022/03/21 15:17:19;;;;;;;24.88;9.50;;;9.40;43.60;;;;;;6211737;28;20269;-75
2022/03/21 15:20:28;;;;;;;26.77;9.20;;;9.30;43.80;;;;;;6212402;28;20265;-76
2022/03/21 15:23:36;;;;;;;26.98;8.63;;;9.40;42.80;;;;;;6211729;28;20301;-75
2022/03/21 15:26:41;;;;;;;16.60;8.43;;;9.40;43.00;;;;;;6212424;28;20458;-76
2022/03/21 15:29:48;;;;;;;13.70;8.25;;;9.30;43.70;;;;;;6212235;28;20296;-76
2022/03/21 15:32:53;;;;;;;19.20;9.02;;;9.20;43.30;;;;;;6216682;28;20405;-75
2022/03/21 15:41:40;;;;;;;24.38;8.40;;;9.20;42.70;;;;;;6232138;28;20276;-75
2022/03/21 15:42:47;;;;;;;28.60;9.43;;;9.10;43.20;;;;;;6231505;28;20296;-75
2022/03/21 15:45:54;;;;;;;16.38;8.45;;;9.00;43.80;;;;;;6216600;28;20277;-75
2022/03/21 15:49:00;;;;;;;19.42;9.02;;;9.00;43.80;;;;;;6216416;28;20301;-76
2022/03/21 15:52:06;;;;;;;18.52;9.07;;;8.80;46.10;;;;;;6216474;28;20293;-76
2022/03/21 15:55:14;;;;;;;20.30;8.40;;;8.80;44.70;;;;;;6216864;28;20385;-76
2022/03/21 15:58:21;;;;;;;22.30;9.40;;;8.70;45.50;;;;;;6216223;28;20297;-76
2022/03/21 16:01:27;;;;;;;18.58;9.60;;;8.50;45.60;;;;;;6216713;28;20265;-76
2022/03/21 16:04:35;;;;;;;15.80;9.50;;;8.50;46.00;;;;;;6216223;28;20297;-76
2022/03/21 16:07:42;;;;;;;18.52;8.82;;;8.40;46.60;;;;;;6216011;28;20293;-75
2022/03/21 16:10:47;;;;;;;15.93;8.88;;;8.30;46.20;;;;;;6240897;28;20329;-76
2022/03/21 16:13:53;;;;;;;20.30;9.50;;;8.20;47.20;;;;;;6240178;28;20295;-75
2022/03/21 16:16:59;;;;;;;21.50;10.65;;;8.00;47.70;;;;;;6240745;28;20272;-76
2022/03/21 16:20:05;;;;;;;22.80;9.40;;;8.10;47.50;;;;;;6239250;28;20430;-74
2022/03/21 16:23:17;;;;;;;16.30;8.60;;;8.00;47.90;;;;;;6239742;28;20301;-76
2022/03/21 16:26:22;;;;;;;19.50;9.30;;;8.00;47.50;;;;;;6239209;28;20277;-76
2022/03/21 16:29:28;;;;;;;21.20;9.40;;;8.00;47.50;;;;;;6239720;28;20480;-76
2022/03/21 16:32:36;;;;;;;17.77;9.52;;;7.80;48.70;;;;;;6239440;28;20300;-76
2022/03/21 16:35:42;;;;;;;22.02;9.82;;;7.80;47.50;;;;;;6240748;28;20405;-76
2022/03/21 16:38:50;;;;;;;30.30;9.85;;;7.70;48.20;;;;;;6239371;28;20297;-76
2022/03/21 16:42:16;;;;;;;27.87;9.73;;;7.50;49.70;;;;;;6238793;28;20276;-76